Time;durP1;ratioP1;P1;durP2;ratioP2;P2;SDS_P1;SDS_P2;PMS_P1;PMS_P2;Temp;Humidity;BMP_temperature;BMP_pressure;BME280_temperature;BME280_humidity;BME280_pressure;Samples;Min_cycle;Max_cycle;Signal;HPM_P1;HPM_P2
2022/01/22 00:00:26;;;;;;;14.50;6.90;;;;;;;-1.53;72.61;101234.91;4998716;28;20196;-82
2022/01/22 00:02:52;;;;;;;13.73;6.30;;;;;;;-1.33;72.82;101246.28;4998090;28;20208;-81
2022/01/22 00:05:20;;;;;;;11.77;6.37;;;;;;;-1.28;71.71;101262.03;4999793;28;20177;-79
2022/01/22 00:07:46;;;;;;;9.67;5.00;;;;;;;-1.30;72.22;101255.88;4998044;28;20302;-82
2022/01/22 00:10:18;;;;;;;8.50;4.60;;;;;;;-1.30;72.18;101264.34;4998064;28;20645;-81
2022/01/22 00:13:07;;;;;;;10.93;5.80;;;;;;;-1.26;71.70;101271.63;4998193;28;20173;-80
2022/01/22 00:15:35;;;;;;;11.43;4.87;;;;;;;-1.26;71.83;101263.19;4982618;28;20173;-80
2022/01/22 00:18:00;;;;;;;10.70;5.80;;;;;;;-1.37;72.10;101250.63;4995766;28;20204;-81
2022/01/22 00:20:29;;;;;;;13.23;5.90;;;;;;;-1.34;71.61;101248.56;4995992;28;20292;-78
2022/01/22 00:22:54;;;;;;;13.00;5.20;;;;;;;-1.26;71.91;101259.06;4995845;28;20660;-81
2022/01/22 00:25:21;;;;;;;11.73;5.63;;;;;;;-1.22;71.92;101262.91;4995597;28;20260;-81
2022/01/22 00:27:49;;;;;;;11.13;5.97;;;;;;;-1.16;70.84;101256.28;4996621;28;20209;-81
2022/01/22 00:30:18;;;;;;;14.97;6.50;;;;;;;-1.09;71.10;101260.59;4995313;28;20268;-82
2022/01/22 00:32:44;;;;;;;12.30;5.50;;;;;;;-1.15;70.87;101258.13;4995085;28;20185;-82
2022/01/22 00:35:10;;;;;;;11.67;5.87;;;;;;;-1.22;71.09;101232.75;4996446;28;20541;-81
2022/01/22 00:37:38;;;;;;;11.73;5.03;;;;;;;-1.14;70.72;101257.44;4992938;28;20220;-82
2022/01/22 00:40:04;;;;;;;7.80;5.30;;;;;;;-1.28;70.69;101237.78;4998988;28;20181;-82
2022/01/22 00:42:32;;;;;;;7.57;4.63;;;;;;;-1.27;70.87;101248.78;4999636;28;20178;-82
2022/01/22 00:44:58;;;;;;;17.77;6.57;;;;;;;-1.36;71.07;101240.81;4999922;28;20708;-80
2022/01/22 00:47:26;;;;;;;8.47;4.93;;;;;;;-1.42;71.56;101245.84;4999057;28;20193;-80
2022/01/22 00:49:52;;;;;;;7.40;4.50;;;;;;;-1.56;71.71;101214.34;4999795;28;20201;-82
2022/01/22 00:52:18;;;;;;;8.93;4.60;;;;;;;-1.56;70.85;101225.31;5000050;28;20186;-81
2022/01/22 00:54:44;;;;;;;8.33;4.50;;;;;;;-2.12;71.33;101145.97;4999474;28;20177;-81
2022/01/22 00:57:09;;;;;;;9.57;4.53;;;;;;;-1.56;71.97;101247.91;4999434;28;20653;-82
2022/01/22 00:59:35;;;;;;;10.97;5.10;;;;;;;-1.52;71.78;101246.81;4997767;28;20241;-81
2022/01/22 01:02:01;;;;;;;7.37;4.27;;;;;;;-1.63;71.03;101222.59;4996029;28;20185;-81
2022/01/22 01:04:28;;;;;;;10.63;4.53;;;;;;;-1.47;71.08;101230.78;4996262;28;20181;-81
2022/01/22 01:06:53;;;;;;;6.80;4.47;;;;;;;-1.73;71.28;101185.16;4978626;28;20644;-81
2022/01/22 01:09:19;;;;;;;6.93;4.63;;;;;;;-1.53;71.33;101223.25;4998281;28;20180;-79
2022/01/22 01:11:51;;;;;;;6.43;4.03;;;;;;;-1.83;71.37;101178.56;5000902;28;20672;-81
2022/01/22 01:14:25;;;;;;;9.50;4.77;;;;;;;-1.56;71.55;101207.72;4998385;28;20236;-80
2022/01/22 01:33:16;;;;;;;15.47;4.80;;;;;;;-1.82;71.54;101195.47;4996262;28;20761;-82
2022/01/22 01:35:41;;;;;;;6.97;4.17;;;;;;;-1.76;72.07;101184.72;4995568;28;20177;-81
2022/01/22 01:38:08;;;;;;;6.37;3.90;;;;;;;-1.67;71.34;101183.53;4996317;28;20232;-81
2022/01/22 01:40:38;;;;;;;9.23;3.93;;;;;;;-1.92;71.41;101147.97;4996834;28;20178;-81
2022/01/22 01:45:30;;;;;;;9.93;5.13;;;;;;;-1.70;71.03;101168.00;4995428;28;20173;-82
2022/01/22 01:48:04;;;;;;;9.50;5.27;;;;;;;-1.71;70.74;101151.13;4994752;28;20197;-82
2022/01/22 01:50:32;;;;;;;7.87;5.17;;;;;;;-2.25;70.64;101063.59;4977473;28;20633;-81
2022/01/22 01:58:14;;;;;;;7.53;4.43;;;;;;;-1.49;70.00;101179.41;4994679;28;20236;-81
2022/01/22 02:00:39;;;;;;;9.83;4.13;;;;;;;-1.48;69.81;101178.69;4994234;28;20220;-81
2022/01/22 02:03:05;;;;;;;11.13;4.63;;;;;;;-1.48;69.51;101178.69;4994336;28;20201;-81
2022/01/22 02:05:33;;;;;;;9.50;4.80;;;;;;;-1.45;70.00;101179.13;4994351;28;20178;-81
2022/01/22 02:07:59;;;;;;;5.57;3.87;;;;;;;-1.46;69.02;101179.84;4993901;28;20233;-81
2022/01/22 02:10:28;;;;;;;15.13;4.70;;;;;;;-1.50;69.44;101180.06;4993975;28;20209;-81
2022/01/22 02:23:44;;;;;;;9.73;5.03;;;;;;;-1.88;70.70;101176.28;4998487;28;20260;-80
2022/01/22 02:26:12;;;;;;;9.13;4.80;;;;;;;-1.95;70.43;101162.59;4998374;28;20173;-81
2022/01/22 02:28:38;;;;;;;11.97;5.77;;;;;;;-2.07;70.71;101138.19;4997865;28;20173;-78
2022/01/22 02:31:12;;;;;;;11.63;5.60;;;;;;;-1.81;70.59;101177.19;4998527;28;20180;-80
2022/01/22 02:33:49;;;;;;;7.33;4.90;;;;;;;-1.78;70.18;101167.56;4998558;28;20680;-79
2022/01/22 02:36:31;;;;;;;10.63;5.10;;;;;;;-1.68;70.16;101175.78;4998301;28;20192;-80
2022/01/22 02:39:06;;;;;;;8.17;4.83;;;;;;;-1.65;69.70;101171.22;5002629;28;20177;-80
2022/01/22 02:41:33;;;;;;;7.20;4.67;;;;;;;-1.58;70.02;101178.06;5005191;28;20165;-79
2022/01/22 02:44:00;;;;;;;9.47;4.47;;;;;;;-1.48;69.68;101176.19;5006832;28;20185;-80
2022/01/22 02:46:31;;;;;;;8.47;4.47;;;;;;;-1.65;70.13;101153.63;5001067;28;20192;-80
2022/01/22 02:48:56;;;;;;;9.17;4.97;;;;;;;-1.66;69.93;101162.75;5000557;28;20562;-80
2022/01/22 02:51:23;;;;;;;11.10;4.20;;;;;;;-1.79;69.95;101156.63;4996539;28;20597;-80
2022/01/22 02:53:50;;;;;;;9.73;4.93;;;;;;;-1.68;69.84;101184.25;5003388;28;20181;-81
2022/01/22 02:56:16;;;;;;;7.30;4.30;;;;;;;-1.77;70.55;101187.91;5008532;28;20208;-79
2022/01/22 02:58:42;;;;;;;10.70;4.27;;;;;;;-1.87;70.77;101178.13;5010088;28;20197;-80
2022/01/22 03:01:08;;;;;;;6.97;4.83;;;;;;;-1.83;70.82;101178.56;5007972;28;20563;-82
2022/01/22 03:03:33;;;;;;;7.00;3.70;;;;;;;-1.86;70.84;101163.97;4995038;28;20237;-80
2022/01/22 03:06:01;;;;;;;8.57;4.80;;;;;;;-1.97;71.22;101153.91;4977741;28;20699;-80
2022/01/22 03:08:28;;;;;;;6.90;4.60;;;;;;;-1.77;71.24;101180.38;4994433;28;20243;-82
2022/01/22 03:10:54;;;;;;;9.43;4.80;;;;;;;-1.66;70.66;101169.38;4993670;28;20199;-81
2022/01/22 03:19:05;;;;;;;15.80;5.33;;;;;;;-1.76;70.65;101148.63;4992983;28;20254;-81
2022/01/22 03:29:19;;;;;;;9.70;4.57;;;;;;;-1.71;71.10;101157.75;4993384;28;20246;-80
2022/01/22 03:31:45;;;;;;;9.73;5.17;;;;;;;-1.73;70.77;101156.59;4999370;28;20641;-81
2022/01/22 03:34:11;;;;;;;8.27;4.73;;;;;;;-1.73;70.92;101157.53;4993372;28;20174;-82
2022/01/22 03:36:38;;;;;;;7.53;4.27;;;;;;;-1.83;70.73;101158.47;4992176;28;20731;-81
2022/01/22 03:39:06;;;;;;;6.23;4.40;;;;;;;-1.88;71.04;101160.28;4992794;28;20181;-80
2022/01/22 03:41:31;;;;;;;6.63;4.07;;;;;;;-2.14;71.60;101118.81;4992632;28;20185;-83
2022/01/22 03:43:57;;;;;;;10.73;4.30;;;;;;;-2.17;71.50;101099.19;4992562;28;20189;-82
2022/01/22 03:46:23;;;;;;;12.27;4.23;;;;;;;-1.91;71.35;101148.19;4975090;28;20664;-82
2022/01/22 03:48:49;;;;;;;6.80;4.63;;;;;;;-1.82;71.69;101148.63;4992663;28;20177;-82
2022/01/22 03:51:15;;;;;;;11.40;4.20;;;;;;;-1.82;71.69;101161.19;4992192;28;20665;-82
2022/01/22 03:53:41;;;;;;;10.13;4.60;;;;;;;-1.82;71.66;101161.19;4992530;28;20192;-83
2022/01/22 03:56:07;;;;;;;9.57;4.60;;;;;;;-1.92;71.43;101150.50;4992405;28;20221;-84
2022/01/22 03:58:36;;;;;;;7.00;4.60;;;;;;;-2.03;71.37;101136.34;4991855;28;20742;-83
2022/01/22 04:04:04;;;;;;;9.37;4.97;;;;;;;-1.81;71.68;101164.63;4992278;28;20185;-82
2022/01/22 04:09:01;;;;;;;11.30;5.20;;;;;;;-1.76;71.07;101151.13;4992463;28;20169;-83
2022/01/22 04:11:26;;;;;;;8.90;4.70;;;;;;;-1.69;71.37;101162.28;4992124;28;20252;-81
2022/01/22 04:13:58;;;;;;;10.23;5.10;;;;;;;-1.66;70.86;101155.19;4992792;28;20248;-82
2022/01/22 04:16:23;;;;;;;9.20;4.93;;;;;;;-1.83;70.63;101118.28;4996235;28;20161;-83
2022/01/22 04:27:11;;;;;;;10.60;5.47;;;;;;;-1.52;70.34;101153.81;4996025;28;20704;-82
2022/01/22 04:29:37;;;;;;;10.10;6.07;;;;;;;-1.72;70.86;101131.69;4995872;28;20169;-82
2022/01/22 04:32:04;;;;;;;12.87;5.67;;;;;;;-1.59;71.00;101157.00;4995427;28;20189;-83
2022/01/22 04:34:30;;;;;;;12.90;6.03;;;;;;;-1.76;71.28;101147.03;4995605;28;20654;-82
2022/01/22 04:36:55;;;;;;;11.80;6.30;;;;;;;-1.80;71.51;101153.91;4995959;28;20188;-82
2022/01/22 04:39:22;;;;;;;18.20;6.47;;;;;;;-1.94;71.61;101130.16;4995739;28;20697;-82
2022/01/22 04:41:51;;;;;;;10.27;5.80;;;;;;;-2.00;71.82;101130.88;4995471;28;20177;-81
2022/01/22 04:44:18;;;;;;;13.23;6.37;;;;;;;-2.21;72.31;101093.47;4977808;28;20177;-81
2022/01/22 04:49:14;;;;;;;16.13;6.83;;;;;;;-2.03;72.34;101121.28;4995325;28;20177;-80
2022/01/22 04:57:08;;;;;;;14.37;6.80;;;;;;;-2.21;73.70;101122.03;4995225;28;20177;-82
2022/01/22 04:59:34;;;;;;;11.07;5.80;;;;;;;-2.03;72.84;101130.41;4977548;28;20205;-81
2022/01/22 05:01:59;;;;;;;14.93;6.27;;;;;;;-2.08;73.30;101133.88;4995086;28;20189;-81
2022/01/22 05:04:25;;;;;;;13.07;6.57;;;;;;;-2.05;73.30;101144.38;4994931;28;20642;-82
2022/01/22 05:06:51;;;;;;;9.83;5.77;;;;;;;-1.96;73.53;101140.69;4994838;28;20209;-82
2022/01/22 05:09:16;;;;;;;10.07;6.43;;;;;;;-1.92;73.12;101135.44;4995071;28;20248;-82
2022/01/22 05:11:42;;;;;;;13.73;7.00;;;;;;;-2.01;72.97;101112.38;4994911;28;20177;-81
2022/01/22 05:14:09;;;;;;;17.67;6.20;;;;;;;-1.90;73.02;101134.03;4977128;28;20655;-83
2022/01/22 05:16:34;;;;;;;10.60;6.77;;;;;;;-1.99;72.76;101107.59;4995107;28;20561;-81
2022/01/22 05:19:06;;;;;;;19.03;7.13;;;;;;;-1.83;72.91;101136.78;4994972;28;20654;-82
2022/01/22 05:21:34;;;;;;;11.77;6.33;;;;;;;-1.93;72.94;101138.59;4995216;28;20169;-80
2022/01/22 05:24:04;;;;;;;18.47;7.60;;;;;;;-1.95;73.47;101133.38;4994558;28;20173;-81
2022/01/22 05:29:22;;;;;;;12.20;6.73;;;;;;;-1.84;73.55;101129.91;4994419;28;20185;-80
2022/01/22 05:37:03;;;;;;;13.30;6.83;;;;;;;-1.77;73.15;101130.13;4994533;28;20181;-81
2022/01/22 05:39:30;;;;;;;16.53;7.97;;;;;;;-1.86;73.19;101099.56;4994419;28;20172;-81
2022/01/22 05:41:58;;;;;;;14.60;7.40;;;;;;;-1.82;73.33;101127.63;4994447;28;20180;-81
2022/01/22 05:44:24;;;;;;;14.40;7.23;;;;;;;-1.81;73.38;101135.38;4994215;28;20201;-83
2022/01/22 05:46:52;;;;;;;16.70;7.73;;;;;;;-1.59;73.19;101126.84;4995673;28;20358;-81
2022/01/22 05:49:20;;;;;;;19.10;8.20;;;;;;;-2.18;72.44;100991.00;4994270;28;20818;-79
2022/01/22 05:51:47;;;;;;;19.63;9.77;;;;;;;-1.56;72.63;101123.88;4994655;28;20181;-80
2022/01/22 05:59:39;;;;;;;17.17;7.60;;;;;;;-1.47;72.05;101120.19;4994842;28;20223;-81
2022/01/22 06:02:18;;;;;;;12.80;6.87;;;;;;;-1.53;72.26;101129.34;4994907;28;20184;-83
2022/01/22 06:04:44;;;;;;;19.87;7.57;;;;;;;-1.60;72.66;101121.63;4994952;28;20188;-82
2022/01/22 06:07:11;;;;;;;26.83;12.30;;;;;;;-1.56;72.71;101126.38;4977110;28;20209;-78
2022/01/22 06:09:43;;;;;;;18.27;8.50;;;;;;;-1.84;73.13;101059.56;4977105;28;20169;-82
2022/01/22 06:14:38;;;;;;;14.80;7.27;;;;;;;-1.68;73.03;101097.91;4994049;28;20264;-78
2022/01/22 06:17:04;;;;;;;22.93;9.50;;;;;;;-1.81;72.75;101057.50;4994433;28;20182;-78
2022/01/22 06:19:29;;;;;;;13.50;7.40;;;;;;;-1.90;72.17;101021.94;4993768;28;20670;-78
2022/01/22 06:21:55;;;;;;;20.93;10.07;;;;;;;-1.19;71.38;101118.44;4994255;28;20180;-79
2022/01/22 06:24:22;;;;;;;14.70;8.20;;;;;;;-1.68;71.75;101052.69;4993873;28;20173;-79
2022/01/22 06:26:48;;;;;;;16.27;9.17;;;;;;;-1.15;71.21;101122.31;4995530;28;20216;-81
2022/01/22 06:29:13;;;;;;;19.70;8.07;;;;;;;-1.18;71.02;101115.25;4977226;28;20589;-84
2022/01/22 06:31:39;;;;;;;16.20;7.23;;;;;;;-1.09;70.44;101129.81;5000666;28;20224;-84
2022/01/22 06:34:05;;;;;;;15.03;7.40;;;;;;;-1.24;71.04;101134.47;4995697;28;20268;-81
2022/01/22 06:36:31;;;;;;;16.60;7.10;;;;;;;-1.27;71.31;101129.00;4993869;28;20173;-80
2022/01/22 06:39:09;;;;;;;26.73;10.20;;;;;;;-1.27;71.03;101131.53;5003933;28;20275;-80
2022/01/22 06:41:47;;;;;;;20.40;8.33;;;;;;;-1.49;70.94;101089.81;4996859;28;20162;-78
2022/01/22 06:44:14;;;;;;;15.87;9.07;;;;;;;-1.06;70.73;101126.16;5015214;28;20145;-81
2022/01/22 06:46:41;;;;;;;20.37;9.43;;;;;;;-0.82;70.32;101123.69;5009905;28;20229;-78
2022/01/22 06:49:06;;;;;;;22.10;10.73;;;;;;;-0.81;69.26;101110.44;5015283;28;20581;-74
2022/01/22 06:51:33;;;;;;;18.33;9.57;;;;;;;-0.63;68.84;101123.78;5018272;28;20169;-78
2022/01/22 06:53:58;;;;;;;21.53;8.77;;;;;;;-0.64;68.16;101121.97;5019442;28;21463;-80
2022/01/22 06:56:28;;;;;;;16.13;7.00;;;;;;;-0.58;67.64;101122.84;5019320;28;20194;-76
2022/01/22 06:58:53;;;;;;;16.00;7.80;;;;;;;-0.54;67.21;101118.44;5019370;28;20196;-79
2022/01/22 07:01:19;;;;;;;18.13;8.23;;;;;;;-0.47;66.93;101116.13;5018513;28;20584;-82
2022/01/22 07:03:44;;;;;;;19.87;7.10;;;;;;;-0.84;66.54;101039.56;5018280;28;20161;-79
2022/01/22 07:06:10;;;;;;;14.33;7.23;;;;;;;-0.56;66.53;101083.69;4998892;28;20181;-80
2022/01/22 07:08:36;;;;;;;20.20;11.03;;;;;;;-0.51;66.52;101082.72;5017828;28;20193;-78
2022/01/22 07:11:01;;;;;;;17.83;8.07;;;;;;;-0.11;65.42;101113.50;5018037;28;20193;-80
2022/01/22 07:13:27;;;;;;;17.80;7.30;;;;;;;-0.11;65.49;101110.97;5018751;28;20240;-81
2022/01/22 07:15:52;;;;;;;18.73;8.53;;;;;;;-0.05;65.13;101117.78;5015792;28;20243;-80
2022/01/22 07:18:18;;;;;;;12.73;7.23;;;;;;;-0.10;65.54;101107.75;5016740;28;20166;-79
2022/01/22 07:20:44;;;;;;;19.53;6.70;;;;;;;-0.27;64.91;101058.47;5001948;28;20177;-81
2022/01/22 07:23:20;;;;;;;15.77;7.60;;;;;;;0.01;65.13;101094.13;5018624;28;20157;-80
2022/01/22 07:25:46;;;;;;;13.17;6.60;;;;;;;0.16;64.86;101101.31;5018091;28;20200;-80
2022/01/22 07:28:13;;;;;;;17.27;8.47;;;;;;;0.18;65.05;101094.84;5018088;28;20193;-81
2022/01/22 07:30:39;;;;;;;24.47;8.90;;;;;;;0.09;64.32;101049.13;5012180;28;20324;-83
2022/01/22 07:33:06;;;;;;;21.33;9.50;;;;;;;0.29;63.54;101084.63;4998125;28;20703;-81
2022/01/22 07:35:34;;;;;;;23.87;9.07;;;;;;;0.36;63.59;101097.38;4998802;28;20208;-80
2022/01/22 07:38:02;;;;;;;26.10;11.17;;;;;;;0.32;64.16;101096.75;4997322;28;20176;-81
2022/01/22 07:40:28;;;;;;;18.80;8.90;;;;;;;0.45;63.55;101097.75;4995550;28;20186;-83
2022/01/22 07:42:54;;;;;;;14.13;7.73;;;;;;;0.38;63.22;101090.03;4994050;28;20712;-77
2022/01/22 07:45:20;;;;;;;15.07;7.63;;;;;;;0.36;63.77;101083.88;4994802;28;20185;-80
2022/01/22 07:47:45;;;;;;;15.53;7.03;;;;;;;0.32;63.86;101076.59;4995245;28;20205;-83
2022/01/22 07:50:11;;;;;;;11.73;6.40;;;;;;;0.42;63.61;101074.63;4994218;28;20231;-80
2022/01/22 07:52:36;;;;;;;16.77;7.10;;;;;;;0.33;63.68;101063.28;4993546;28;20177;-79
2022/01/22 07:55:03;;;;;;;15.20;7.63;;;;;;;0.45;64.43;101075.03;4975094;28;20657;-81
2022/01/22 07:57:29;;;;;;;14.90;7.70;;;;;;;0.50;64.20;101065.56;4976744;28;20199;-80
2022/01/22 07:59:55;;;;;;;16.43;8.40;;;;;;;0.75;64.58;101082.41;5000173;28;20249;-82
2022/01/22 08:02:20;;;;;;;19.33;8.63;;;;;;;0.95;64.06;101088.56;4983465;28;20209;-83
2022/01/22 08:04:46;;;;;;;18.50;8.00;;;;;;;0.82;63.61;101027.06;5001104;28;20181;-81
2022/01/22 08:07:11;;;;;;;17.60;8.93;;;;;;;1.31;62.61;101087.56;5002073;28;20204;-81
2022/01/22 08:09:37;;;;;;;16.80;6.83;;;;;;;1.14;61.45;101018.75;4981414;28;20181;-81
2022/01/22 08:12:04;;;;;;;19.50;7.30;;;;;;;1.26;62.02;101034.63;5003199;28;20184;-80
2022/01/22 08:14:29;;;;;;;17.53;8.23;;;;;;;1.53;61.78;101078.69;5004023;28;20231;-81
2022/01/22 08:16:55;;;;;;;13.00;7.60;;;;;;;1.66;61.16;101070.22;5001842;28;20681;-82
2022/01/22 08:19:21;;;;;;;11.40;6.03;;;;;;;1.72;60.80;101069.41;5000219;28;20177;-80
2022/01/22 08:21:47;;;;;;;12.70;6.57;;;;;;;1.75;60.37;101054.63;5001551;28;20166;-82
2022/01/22 08:24:14;;;;;;;15.70;6.40;;;;;;;1.79;59.76;101063.53;5001034;28;20180;-79
2022/01/22 08:26:48;;;;;;;16.63;6.73;;;;;;;1.76;59.40;101063.13;5001026;28;20264;-79
2022/01/22 08:29:14;;;;;;;12.97;7.27;;;;;;;1.73;59.80;101038.38;4983613;28;20174;-83
2022/01/22 08:32:04;;;;;;;14.07;7.20;;;;;;;1.68;59.92;101021.69;5001739;28;20184;-81
2022/01/22 08:37:14;;;;;;;10.47;6.90;;;;;;;1.96;58.81;101016.13;4998231;28;20176;-81
2022/01/22 08:39:39;;;;;;;11.80;5.93;;;;;;;2.05;58.56;100999.56;4999230;28;20268;-80
2022/01/22 08:42:06;;;;;;;14.10;6.27;;;;;;;2.59;56.97;101057.09;4999163;28;20177;-78
2022/01/22 08:44:31;;;;;;;17.10;8.37;;;;;;;2.74;56.46;101060.63;4997821;28;20178;-80
2022/01/22 08:46:57;;;;;;;13.87;5.73;;;;;;;2.93;55.42;101051.25;4999306;28;20363;-81
2022/01/22 08:49:23;;;;;;;12.27;6.30;;;;;;;2.78;54.86;101063.78;4998565;28;20181;-79
2022/01/22 08:51:48;;;;;;;13.77;6.13;;;;;;;2.61;55.52;101053.09;5000450;28;20170;-80
2022/01/22 08:54:14;;;;;;;17.83;6.73;;;;;;;2.67;55.88;101063.09;5001773;28;20205;-82
2022/01/22 08:56:41;;;;;;;12.00;6.10;;;;;;;2.62;56.12;101061.63;5000534;28;20173;-79
2022/01/22 08:59:08;;;;;;;16.53;6.47;;;;;;;2.70;55.88;101053.38;5000737;28;20201;-81
2022/01/22 09:01:34;;;;;;;14.93;6.80;;;;;;;2.72;55.80;101050.34;5003432;28;20186;-79
2022/01/22 09:04:00;;;;;;;12.53;6.50;;;;;;;2.74;55.26;101045.44;5006390;28;20188;-81
2022/01/22 09:06:28;;;;;;;16.83;7.13;;;;;;;2.75;56.28;101040.59;4996153;28;20565;-80
2022/01/22 09:08:59;;;;;;;18.93;8.70;;;;;;;2.89;56.39;101034.75;4995709;28;20263;-81
2022/01/22 09:11:25;;;;;;;25.90;10.60;;;;;;;3.12;55.73;101025.00;4995648;28;20169;-80
2022/01/22 09:13:51;;;;;;;32.13;20.37;;;;;;;3.37;54.91;101023.91;4995728;28;20227;-80
2022/01/22 09:16:16;;;;;;;18.10;9.27;;;;;;;3.57;53.81;101023.84;4977490;28;20186;-80
2022/01/22 09:18:42;;;;;;;40.73;21.00;;;;;;;3.67;53.69;101018.28;4995559;28;20189;-80
2022/01/22 09:21:10;;;;;;;15.37;8.07;;;;;;;3.92;52.41;101025.69;4978155;28;20201;-79
2022/01/22 09:23:35;;;;;;;30.77;15.67;;;;;;;3.89;51.95;101014.22;4995176;28;20269;-79
2022/01/22 09:26:01;;;;;;;20.10;9.03;;;;;;;3.88;52.26;101009.88;4995442;28;20260;-81
2022/01/22 09:28:26;;;;;;;16.03;7.67;;;;;;;4.15;52.47;101002.19;4994603;28;20201;-81
2022/01/22 09:30:53;;;;;;;16.07;8.37;;;;;;;4.42;50.28;100998.63;4995062;28;20232;-81
2022/01/22 09:33:18;;;;;;;37.37;17.73;;;;;;;4.58;50.84;100995.59;4995155;28;20260;-81
2022/01/22 09:35:44;;;;;;;19.97;8.80;;;;;;;4.58;49.81;100967.66;4998033;28;20227;-80
2022/01/22 09:38:10;;;;;;;30.67;14.77;;;;;;;4.72;49.22;100991.25;4980665;28;20249;-80
2022/01/22 09:40:35;;;;;;;34.70;17.80;;;;;;;4.70;49.73;100985.06;4997013;28;20559;-79
2022/01/22 09:43:01;;;;;;;26.67;12.67;;;;;;;4.61;49.27;100937.59;4996721;28;20182;-82
2022/01/22 09:45:28;;;;;;;15.83;7.57;;;;;;;4.78;48.86;100942.09;4996914;28;20558;-81
2022/01/22 09:47:58;;;;;;;11.43;5.90;;;;;;;4.94;48.21;100954.06;4981139;28;20208;-80
2022/01/22 09:50:27;;;;;;;12.57;5.87;;;;;;;4.68;48.61;100908.75;4997581;28;20173;-82
2022/01/22 09:52:52;;;;;;;16.23;6.40;;;;;;;5.28;47.38;100949.63;4995796;28;20169;-77
2022/01/22 09:55:18;;;;;;;13.23;6.55;;;;;;;5.32;47.52;100967.03;4996329;28;20185;-81
2022/01/22 09:57:45;;;;;;;14.23;7.03;;;;;;;4.89;46.74;100872.28;4995133;28;20600;-81
2022/01/22 10:00:14;;;;;;;15.13;6.77;;;;;;;4.83;46.47;100821.69;4994677;28;20166;-83
2022/01/22 10:02:46;;;;;;;16.40;5.60;;;;;;;5.34;45.87;100921.50;4995257;28;20188;-82
2022/01/22 10:05:33;;;;;;;14.57;5.97;;;;;;;5.39;46.53;100943.28;4999128;28;20689;-82
2022/01/22 10:08:19;;;;;;;11.33;5.63;;;;;;;5.28;46.41;100930.94;4999501;28;20217;-81
2022/01/22 10:10:45;;;;;;;12.37;5.77;;;;;;;5.37;45.98;100933.66;4999023;28;20654;-83
2022/01/22 10:13:11;;;;;;;21.23;9.90;;;;;;;5.53;46.78;100934.69;5000853;28;20779;-83
2022/01/22 10:15:38;;;;;;;10.10;5.93;;;;;;;5.73;46.06;100922.63;5008303;28;20194;-84
2022/01/22 10:18:03;;;;;;;11.07;6.03;;;;;;;5.50;44.88;100822.50;5015401;28;20181;-82
2022/01/22 10:20:32;;;;;;;13.77;6.47;;;;;;;6.12;44.28;100925.34;4996142;28;20184;-78
2022/01/22 10:23:20;;;;;;;13.33;6.17;;;;;;;5.98;44.38;100898.38;5016150;28;20189;-81
2022/01/22 10:25:57;;;;;;;9.67;5.70;;;;;;;6.10;43.27;100915.72;5015768;28;20200;-81
2022/01/22 10:28:26;;;;;;;14.00;5.20;;;;;;;5.79;43.11;100877.56;4992364;28;20216;-80
2022/01/22 10:30:57;;;;;;;12.00;6.13;;;;;;;6.16;42.82;100917.31;4998463;28;20182;-80
2022/01/22 10:33:33;;;;;;;13.47;6.13;;;;;;;5.88;42.66;100864.94;4982179;28;20646;-84
2022/01/22 10:36:09;;;;;;;12.30;5.95;;;;;;;6.05;41.80;100884.69;4998078;28;20164;-83
2022/01/22 10:38:55;;;;;;;20.67;9.18;;;;;;;6.22;41.65;100881.47;5004569;28;20201;-80
2022/01/22 10:41:37;;;;;;;14.07;6.07;;;;;;;6.64;40.64;100910.78;5000479;28;20196;-82
2022/01/22 10:44:04;;;;;;;16.38;6.35;;;;;;;6.70;40.97;100901.28;5003111;28;20224;-81
2022/01/22 10:46:50;;;;;;;11.23;6.78;;;;;;;6.95;41.55;100883.56;4991182;28;20177;-82
2022/01/22 10:49:19;;;;;;;8.93;5.72;;;;;;;7.30;40.01;100892.47;5000714;28;20161;-77
2022/01/22 10:51:46;;;;;;;30.73;16.52;;;;;;;7.43;40.18;100893.78;4995422;28;20181;-81
2022/01/22 10:54:15;;;;;;;13.55;7.75;;;;;;;7.94;38.48;100895.81;4994166;28;20192;-80
2022/01/22 10:56:44;;;;;;;19.60;8.57;;;;;;;8.26;37.36;100891.53;4994493;28;20184;-81
2022/01/22 10:59:16;;;;;;;13.45;5.50;;;;;;;8.21;37.25;100890.13;4995692;28;20233;-83
2022/01/22 11:01:46;;;;;;;18.08;6.32;;;;;;;8.25;37.59;100894.78;4995975;28;20224;-84
2022/01/22 11:04:18;;;;;;;13.45;6.90;;;;;;;8.67;37.08;100876.13;4996285;28;20179;-81
2022/01/22 11:06:49;;;;;;;8.57;4.95;;;;;;;8.67;35.59;100871.91;4981914;28;20189;-83
2022/01/22 11:09:14;;;;;;;14.98;6.13;;;;;;;8.45;36.37;100811.75;4997526;28;20177;-81
2022/01/22 11:11:41;;;;;;;9.63;5.10;;;;;;;8.58;35.75;100824.09;4979897;28;20173;-81
2022/01/22 11:14:08;;;;;;;17.40;7.05;;;;;;;8.68;35.57;100827.72;4994966;28;20220;-81
2022/01/22 11:16:39;;;;;;;13.65;7.05;;;;;;;8.93;36.16;100856.63;4994855;28;20558;-81
2022/01/22 11:19:09;;;;;;;11.88;5.70;;;;;;;9.06;35.17;100843.41;4993711;28;20190;-81
2022/01/22 11:21:40;;;;;;;11.07;5.93;;;;;;;9.30;35.30;100856.84;4975965;28;20587;-81
2022/01/22 11:24:08;;;;;;;10.65;6.00;;;;;;;9.38;34.77;100841.50;4993359;28;20172;-81
2022/01/22 11:26:37;;;;;;;13.63;6.88;;;;;;;9.47;35.34;100826.19;4993986;28;20197;-80
2022/01/22 11:29:03;;;;;;;12.27;6.50;;;;;;;9.47;34.83;100800.59;4992922;28;20180;-80
2022/01/22 11:31:31;;;;;;;12.35;7.00;;;;;;;9.79;34.92;100833.50;4992560;28;20201;-83
2022/01/22 11:34:00;;;;;;;11.15;6.43;;;;;;;9.75;33.92;100813.47;4992665;28;20207;-82
2022/01/22 11:36:36;;;;;;;15.18;6.40;;;;;;;9.85;34.20;100823.88;4993104;28;20173;-80
2022/01/22 11:39:03;;;;;;;12.02;6.05;;;;;;;10.06;33.83;100814.75;4993803;28;20165;-83
2022/01/22 11:41:29;;;;;;;15.73;6.95;;;;;;;10.13;33.55;100823.19;4996772;28;20184;-81
2022/01/22 11:46:35;;;;;;;18.10;7.75;;;;;;;9.99;33.60;100822.59;4994425;28;20180;-80
2022/01/22 11:49:21;;;;;;;16.92;9.35;;;;;;;10.16;33.28;100817.44;4995642;28;20320;-81
2022/01/22 11:51:50;;;;;;;14.63;6.07;;;;;;;10.42;33.23;100807.13;4993510;28;20162;-79
2022/01/22 11:54:20;;;;;;;10.65;5.00;;;;;;;10.38;32.07;100780.31;4994028;28;20223;-82
2022/01/22 11:56:51;;;;;;;11.38;6.25;;;;;;;10.00;32.32;100705.03;4994660;28;20166;-82
2022/01/22 11:59:20;;;;;;;11.52;5.72;;;;;;;10.55;32.93;100809.16;4997501;28;20219;-81
2022/01/22 12:01:50;;;;;;;8.48;5.22;;;;;;;10.41;32.21;100797.63;4995975;28;20654;-82
2022/01/22 12:04:17;;;;;;;10.45;6.20;;;;;;;10.25;32.12;100799.47;4996276;28;20680;-80
2022/01/22 12:07:04;;;;;;;11.00;5.95;;;;;;;10.23;32.60;100801.91;4995531;28;20545;-80
2022/01/22 12:10:14;;;;;;;7.93;5.47;;;;;;;10.15;32.93;100795.13;4999324;28;20184;-80
2022/01/22 12:15:25;;;;;;;9.50;4.38;;;;;;;10.09;30.87;100808.28;4984305;28;20216;-79
2022/01/22 12:17:58;;;;;;;9.27;4.78;;;;;;;10.27;30.78;100806.56;4996413;28;20166;-80
2022/01/22 12:23:09;;;;;;;13.25;6.13;;;;;;;10.09;30.70;100779.19;4997957;28;20571;-78
2022/01/22 12:25:35;;;;;;;15.50;7.32;;;;;;;10.10;30.45;100796.38;4996860;28;20212;-80
2022/01/22 12:28:03;;;;;;;10.50;4.90;;;;;;;9.78;30.20;100788.19;4995099;28;20197;-79
2022/01/22 12:30:36;;;;;;;8.05;4.30;;;;;;;9.84;30.53;100792.22;4993507;28;20273;-80
2022/01/22 12:33:06;;;;;;;11.52;4.65;;;;;;;9.91;31.58;100757.91;4993246;28;20518;-80
2022/01/22 12:35:38;;;;;;;7.78;4.63;;;;;;;10.45;30.19;100796.25;4995531;28;20180;-79
2022/01/22 12:41:13;;;;;;;7.75;4.30;;;;;;;10.48;29.10;100791.44;5004809;28;20225;-76
2022/01/22 12:43:39;;;;;;;9.00;4.90;;;;;;;10.10;29.20;100752.84;5000902;28;20192;-82
2022/01/22 12:46:06;;;;;;;8.60;5.00;;;;;;;10.05;29.29;100792.47;5004087;28;20637;-82
2022/01/22 12:48:35;;;;;;;16.77;5.18;;;;;;;9.72;28.85;100788.53;5000612;28;20201;-82
2022/01/22 12:51:09;;;;;;;7.18;4.32;;;;;;;9.47;29.06;100775.91;4998152;28;20181;-82
2022/01/22 12:53:38;;;;;;;8.85;4.22;;;;;;;9.62;29.21;100785.81;5000494;28;20176;-82
2022/01/22 12:58:37;;;;;;;9.07;5.88;;;;;;;9.72;28.41;100757.81;4998532;28;20189;-81
2022/01/22 13:01:14;;;;;;;12.95;7.05;;;;;;;9.75;28.70;100791.38;4997977;28;20172;-86
2022/01/22 13:03:42;;;;;;;17.90;8.38;;;;;;;9.58;29.91;100791.38;4999696;28;20189;-84
2022/01/22 13:06:08;;;;;;;16.65;6.97;;;;;;;9.09;29.24;100758.47;5005303;28;20267;-84
2022/01/22 13:08:34;;;;;;;8.93;5.18;;;;;;;9.08;29.59;100800.13;4985426;28;20763;-80